sensor_id;sensor_type;location;lat;lon;timestamp;P1;durP1;ratioP1;P2;durP2;ratioP2
49123;SDS011;48506;48.202;16.274;2023-03-15T00:02:03;1.33;;;0.60;;
49123;SDS011;48506;48.202;16.274;2023-03-15T00:04:30;2.05;;;0.60;;
49123;SDS011;48506;48.202;16.274;2023-03-15T00:06:56;1.75;;;0.77;;
49123;SDS011;48506;48.202;16.274;2023-03-15T00:09:23;3.70;;;0.98;;
49123;SDS011;48506;48.202;16.274;2023-03-15T00:11:50;3.10;;;1.10;;
49123;SDS011;48506;48.202;16.274;2023-03-15T00:14:18;1.92;;;0.70;;
49123;SDS011;48506;48.202;16.274;2023-03-15T00:16:45;2.28;;;1.27;;
49123;SDS011;48506;48.202;16.274;2023-03-15T00:19:12;1.30;;;0.80;;
49123;SDS011;48506;48.202;16.274;2023-03-15T00:21:39;1.30;;;0.75;;
49123;SDS011;48506;48.202;16.274;2023-03-15T00:24:08;2.00;;;0.95;;
49123;SDS011;48506;48.202;16.274;2023-03-15T00:26:35;4.53;;;0.80;;
49123;SDS011;48506;48.202;16.274;2023-03-15T00:29:02;4.53;;;1.20;;
49123;SDS011;48506;48.202;16.274;2023-03-15T00:31:29;2.15;;;0.75;;
49123;SDS011;48506;48.202;16.274;2023-03-15T00:33:55;4.82;;;1.50;;
49123;SDS011;48506;48.202;16.274;2023-03-15T00:36:21;2.78;;;0.80;;
49123;SDS011;48506;48.202;16.274;2023-03-15T00:38:49;3.97;;;0.85;;
49123;SDS011;48506;48.202;16.274;2023-03-15T00:41:18;5.10;;;0.88;;
49123;SDS011;48506;48.202;16.274;2023-03-15T00:43:45;1.83;;;0.85;;
49123;SDS011;48506;48.202;16.274;2023-03-15T00:46:12;2.70;;;0.98;;
49123;SDS011;48506;48.202;16.274;2023-03-15T00:48:38;2.13;;;0.93;;
49123;SDS011;48506;48.202;16.274;2023-03-15T00:51:08;1.17;;;0.80;;
49123;SDS011;48506;48.202;16.274;2023-03-15T00:53:37;1.58;;;0.93;;
49123;SDS011;48506;48.202;16.274;2023-03-15T00:56:04;1.90;;;0.80;;
49123;SDS011;48506;48.202;16.274;2023-03-15T00:58:32;2.70;;;1.10;;
49123;SDS011;48506;48.202;16.274;2023-03-15T01:00:58;1.65;;;0.65;;
49123;SDS011;48506;48.202;16.274;2023-03-15T01:03:26;1.20;;;0.75;;
49123;SDS011;48506;48.202;16.274;2023-03-15T01:05:53;4.07;;;1.02;;
49123;SDS011;48506;48.202;16.274;2023-03-15T01:08:19;1.45;;;0.82;;
49123;SDS011;48506;48.202;16.274;2023-03-15T01:10:45;3.55;;;0.80;;
49123;SDS011;48506;48.202;16.274;2023-03-15T01:13:10;5.78;;;1.13;;
49123;SDS011;48506;48.202;16.274;2023-03-15T01:15:36;1.23;;;0.80;;
49123;SDS011;48506;48.202;16.274;2023-03-15T01:18:02;3.05;;;1.15;;
49123;SDS011;48506;48.202;16.274;2023-03-15T01:20:28;4.85;;;1.05;;
49123;SDS011;48506;48.202;16.274;2023-03-15T01:22:54;1.70;;;0.70;;
49123;SDS011;48506;48.202;16.274;2023-03-15T01:25:21;3.45;;;0.75;;
49123;SDS011;48506;48.202;16.274;2023-03-15T01:27:46;4.53;;;0.70;;
49123;SDS011;48506;48.202;16.274;2023-03-15T01:30:12;5.07;;;1.05;;
49123;SDS011;48506;48.202;16.274;2023-03-15T01:32:38;2.30;;;0.50;;
49123;SDS011;48506;48.202;16.274;2023-03-15T01:35:04;1.25;;;0.60;;
49123;SDS011;48506;48.202;16.274;2023-03-15T01:37:31;1.10;;;0.50;;
49123;SDS011;48506;48.202;16.274;2023-03-15T01:39:58;1.40;;;0.60;;
49123;SDS011;48506;48.202;16.274;2023-03-15T01:42:25;5.72;;;0.65;;
49123;SDS011;48506;48.202;16.274;2023-03-15T01:44:52;0.80;;;0.60;;
49123;SDS011;48506;48.202;16.274;2023-03-15T01:47:20;1.20;;;0.70;;
49123;SDS011;48506;48.202;16.274;2023-03-15T01:49:55;1.10;;;0.80;;
49123;SDS011;48506;48.202;16.274;2023-03-15T01:52:28;1.05;;;0.80;;
49123;SDS011;48506;48.202;16.274;2023-03-15T01:55:31;1.35;;;0.75;;
49123;SDS011;48506;48.202;16.274;2023-03-15T01:57:51;1.50;;;1.40;;
49123;SDS011;48506;48.202;16.274;2023-03-15T02:00:22;0.80;;;0.80;;
49123;SDS011;48506;48.202;16.274;2023-03-15T02:02:50;1.55;;;1.00;;
49123;SDS011;48506;48.202;16.274;2023-03-15T02:05:21;1.88;;;0.90;;
49123;SDS011;48506;48.202;16.274;2023-03-15T02:07:51;1.10;;;0.95;;
49123;SDS011;48506;48.202;16.274;2023-03-15T02:10:36;3.28;;;1.25;;
49123;SDS011;48506;48.202;16.274;2023-03-15T02:13:07;0.95;;;0.88;;
49123;SDS011;48506;48.202;16.274;2023-03-15T02:15:34;1.30;;;1.05;;
49123;SDS011;48506;48.202;16.274;2023-03-15T02:18:00;3.47;;;1.30;;
49123;SDS011;48506;48.202;16.274;2023-03-15T02:23:12;1.20;;;1.08;;
49123;SDS011;48506;48.202;16.274;2023-03-15T02:28:32;1.25;;;1.15;;
49123;SDS011;48506;48.202;16.274;2023-03-15T02:30:58;2.97;;;1.27;;
49123;SDS011;48506;48.202;16.274;2023-03-15T02:33:32;1.30;;;1.13;;
49123;SDS011;48506;48.202;16.274;2023-03-15T02:36:10;3.08;;;1.60;;
49123;SDS011;48506;48.202;16.274;2023-03-15T02:38:42;2.72;;;1.70;;
49123;SDS011;48506;48.202;16.274;2023-03-15T02:41:09;1.90;;;1.80;;
49123;SDS011;48506;48.202;16.274;2023-03-15T02:43:36;1.55;;;1.45;;
49123;SDS011;48506;48.202;16.274;2023-03-15T02:46:04;2.50;;;1.35;;
49123;SDS011;48506;48.202;16.274;2023-03-15T02:48:31;1.55;;;1.45;;
49123;SDS011;48506;48.202;16.274;2023-03-15T02:50:59;2.80;;;1.70;;
49123;SDS011;48506;48.202;16.274;2023-03-15T02:53:27;2.47;;;1.98;;
49123;SDS011;48506;48.202;16.274;2023-03-15T02:55:56;3.47;;;1.80;;
49123;SDS011;48506;48.202;16.274;2023-03-15T02:58:23;1.95;;;1.60;;
49123;SDS011;48506;48.202;16.274;2023-03-15T03:00:51;2.03;;;1.55;;
49123;SDS011;48506;48.202;16.274;2023-03-15T03:03:17;2.15;;;1.95;;
49123;SDS011;48506;48.202;16.274;2023-03-15T03:05:43;4.50;;;1.70;;
49123;SDS011;48506;48.202;16.274;2023-03-15T03:08:09;2.15;;;1.95;;
49123;SDS011;48506;48.202;16.274;2023-03-15T03:10:35;3.88;;;2.13;;
49123;SDS011;48506;48.202;16.274;2023-03-15T03:13:01;2.22;;;2.03;;
49123;SDS011;48506;48.202;16.274;2023-03-15T03:15:27;2.60;;;2.40;;
49123;SDS011;48506;48.202;16.274;2023-03-15T03:17:53;2.30;;;1.92;;
49123;SDS011;48506;48.202;16.274;2023-03-15T03:20:19;3.08;;;2.42;;
49123;SDS011;48506;48.202;16.274;2023-03-15T03:22:44;2.45;;;1.95;;
49123;SDS011;48506;48.202;16.274;2023-03-15T03:25:11;2.50;;;2.00;;
49123;SDS011;48506;48.202;16.274;2023-03-15T03:27:38;2.55;;;2.00;;
49123;SDS011;48506;48.202;16.274;2023-03-15T03:30:05;2.58;;;2.33;;
49123;SDS011;48506;48.202;16.274;2023-03-15T03:32:33;2.92;;;1.80;;
49123;SDS011;48506;48.202;16.274;2023-03-15T03:34:59;2.63;;;2.30;;
49123;SDS011;48506;48.202;16.274;2023-03-15T03:37:26;2.42;;;2.22;;
49123;SDS011;48506;48.202;16.274;2023-03-15T03:39:52;3.30;;;2.33;;
49123;SDS011;48506;48.202;16.274;2023-03-15T03:42:18;2.60;;;2.40;;
49123;SDS011;48506;48.202;16.274;2023-03-15T03:44:44;3.90;;;2.63;;
49123;SDS011;48506;48.202;16.274;2023-03-15T03:47:10;2.80;;;2.50;;
49123;SDS011;48506;48.202;16.274;2023-03-15T03:49:36;3.17;;;2.33;;
49123;SDS011;48506;48.202;16.274;2023-03-15T03:52:02;5.82;;;3.00;;
49123;SDS011;48506;48.202;16.274;2023-03-15T03:54:28;4.35;;;2.28;;
49123;SDS011;48506;48.202;16.274;2023-03-15T03:56:53;3.95;;;2.47;;
49123;SDS011;48506;48.202;16.274;2023-03-15T03:59:19;3.78;;;2.25;;
49123;SDS011;48506;48.202;16.274;2023-03-15T04:01:45;5.53;;;2.65;;
49123;SDS011;48506;48.202;16.274;2023-03-15T04:04:12;3.08;;;2.00;;
49123;SDS011;48506;48.202;16.274;2023-03-15T04:06:41;4.78;;;3.15;;
49123;SDS011;48506;48.202;16.274;2023-03-15T04:09:13;3.38;;;2.53;;
49123;SDS011;48506;48.202;16.274;2023-03-15T04:11:40;4.45;;;2.25;;
49123;SDS011;48506;48.202;16.274;2023-03-15T04:14:10;8.02;;;3.65;;
49123;SDS011;48506;48.202;16.274;2023-03-15T04:16:37;8.45;;;2.45;;
49123;SDS011;48506;48.202;16.274;2023-03-15T04:19:05;6.78;;;1.95;;
49123;SDS011;48506;48.202;16.274;2023-03-15T04:21:34;3.40;;;1.77;;
49123;SDS011;48506;48.202;16.274;2023-03-15T04:24:01;8.80;;;2.50;;
49123;SDS011;48506;48.202;16.274;2023-03-15T04:26:28;9.25;;;2.53;;
49123;SDS011;48506;48.202;16.274;2023-03-15T04:28:54;4.85;;;1.50;;
49123;SDS011;48506;48.202;16.274;2023-03-15T04:31:22;7.32;;;1.45;;
49123;SDS011;48506;48.202;16.274;2023-03-15T04:33:52;7.82;;;1.60;;
49123;SDS011;48506;48.202;16.274;2023-03-15T04:36:19;3.65;;;1.30;;
49123;SDS011;48506;48.202;16.274;2023-03-15T04:38:46;9.75;;;1.40;;
49123;SDS011;48506;48.202;16.274;2023-03-15T04:41:13;4.97;;;1.40;;
49123;SDS011;48506;48.202;16.274;2023-03-15T04:43:41;7.03;;;1.35;;
49123;SDS011;48506;48.202;16.274;2023-03-15T04:46:07;5.43;;;1.45;;
49123;SDS011;48506;48.202;16.274;2023-03-15T04:48:34;3.83;;;1.52;;
49123;SDS011;48506;48.202;16.274;2023-03-15T04:51:01;5.70;;;1.30;;
49123;SDS011;48506;48.202;16.274;2023-03-15T04:53:28;18.70;;;1.77;;
49123;SDS011;48506;48.202;16.274;2023-03-15T04:55:53;9.07;;;1.30;;
49123;SDS011;48506;48.202;16.274;2023-03-15T04:58:19;6.55;;;1.20;;
49123;SDS011;48506;48.202;16.274;2023-03-15T05:00:46;6.53;;;1.38;;
49123;SDS011;48506;48.202;16.274;2023-03-15T05:03:13;4.70;;;1.05;;
49123;SDS011;48506;48.202;16.274;2023-03-15T05:05:39;4.00;;;0.85;;
49123;SDS011;48506;48.202;16.274;2023-03-15T05:08:05;5.97;;;1.30;;
49123;SDS011;48506;48.202;16.274;2023-03-15T05:10:31;3.97;;;0.98;;
49123;SDS011;48506;48.202;16.274;2023-03-15T05:12:57;3.72;;;1.13;;
49123;SDS011;48506;48.202;16.274;2023-03-15T05:15:23;8.32;;;1.65;;
49123;SDS011;48506;48.202;16.274;2023-03-15T05:17:49;4.32;;;1.60;;
49123;SDS011;48506;48.202;16.274;2023-03-15T05:20:19;5.90;;;0.80;;
49123;SDS011;48506;48.202;16.274;2023-03-15T05:22:45;7.15;;;1.52;;
49123;SDS011;48506;48.202;16.274;2023-03-15T05:25:11;3.63;;;0.85;;
49123;SDS011;48506;48.202;16.274;2023-03-15T05:27:38;4.13;;;1.10;;
49123;SDS011;48506;48.202;16.274;2023-03-15T05:30:04;6.10;;;1.25;;
49123;SDS011;48506;48.202;16.274;2023-03-15T05:32:32;7.50;;;1.58;;
49123;SDS011;48506;48.202;16.274;2023-03-15T05:35:04;5.32;;;1.33;;
49123;SDS011;48506;48.202;16.274;2023-03-15T05:37:32;5.88;;;1.58;;
49123;SDS011;48506;48.202;16.274;2023-03-15T05:39:59;6.22;;;1.52;;
49123;SDS011;48506;48.202;16.274;2023-03-15T05:42:25;3.92;;;0.82;;
49123;SDS011;48506;48.202;16.274;2023-03-15T05:44:52;3.85;;;0.93;;
49123;SDS011;48506;48.202;16.274;2023-03-15T05:47:18;7.63;;;1.00;;
49123;SDS011;48506;48.202;16.274;2023-03-15T05:49:44;7.97;;;1.27;;
49123;SDS011;48506;48.202;16.274;2023-03-15T05:52:10;4.88;;;0.82;;
49123;SDS011;48506;48.202;16.274;2023-03-15T05:54:36;7.43;;;2.20;;
49123;SDS011;48506;48.202;16.274;2023-03-15T05:57:02;9.65;;;1.75;;
49123;SDS011;48506;48.202;16.274;2023-03-15T05:59:29;6.55;;;1.15;;
49123;SDS011;48506;48.202;16.274;2023-03-15T06:01:55;6.68;;;1.85;;
49123;SDS011;48506;48.202;16.274;2023-03-15T06:04:21;5.07;;;1.40;;
49123;SDS011;48506;48.202;16.274;2023-03-15T06:06:48;6.03;;;1.05;;
49123;SDS011;48506;48.202;16.274;2023-03-15T06:09:14;8.65;;;1.05;;
49123;SDS011;48506;48.202;16.274;2023-03-15T06:11:39;7.80;;;1.65;;
49123;SDS011;48506;48.202;16.274;2023-03-15T06:14:05;6.38;;;1.55;;
49123;SDS011;48506;48.202;16.274;2023-03-15T06:16:31;10.85;;;1.58;;
49123;SDS011;48506;48.202;16.274;2023-03-15T06:18:57;5.03;;;1.58;;
49123;SDS011;48506;48.202;16.274;2023-03-15T06:21:24;7.63;;;1.77;;
49123;SDS011;48506;48.202;16.274;2023-03-15T06:23:50;5.60;;;1.95;;
49123;SDS011;48506;48.202;16.274;2023-03-15T06:26:16;11.27;;;1.45;;
49123;SDS011;48506;48.202;16.274;2023-03-15T06:28:43;4.97;;;0.98;;
49123;SDS011;48506;48.202;16.274;2023-03-15T06:31:10;8.52;;;1.65;;
49123;SDS011;48506;48.202;16.274;2023-03-15T06:33:39;8.00;;;3.00;;
49123;SDS011;48506;48.202;16.274;2023-03-15T06:36:06;4.97;;;1.00;;
49123;SDS011;48506;48.202;16.274;2023-03-15T06:38:32;12.25;;;2.50;;
49123;SDS011;48506;48.202;16.274;2023-03-15T06:40:58;12.57;;;1.75;;
49123;SDS011;48506;48.202;16.274;2023-03-15T06:43:25;4.35;;;1.10;;
49123;SDS011;48506;48.202;16.274;2023-03-15T06:45:52;3.50;;;1.05;;
49123;SDS011;48506;48.202;16.274;2023-03-15T06:48:20;14.85;;;1.55;;
49123;SDS011;48506;48.202;16.274;2023-03-15T06:50:47;4.72;;;1.33;;
49123;SDS011;48506;48.202;16.274;2023-03-15T06:53:13;7.25;;;2.42;;
49123;SDS011;48506;48.202;16.274;2023-03-15T06:55:40;5.60;;;1.10;;
49123;SDS011;48506;48.202;16.274;2023-03-15T06:58:06;5.25;;;1.15;;
49123;SDS011;48506;48.202;16.274;2023-03-15T07:00:32;4.95;;;1.20;;
49123;SDS011;48506;48.202;16.274;2023-03-15T07:02:58;3.83;;;1.10;;
49123;SDS011;48506;48.202;16.274;2023-03-15T07:05:24;4.90;;;0.93;;
49123;SDS011;48506;48.202;16.274;2023-03-15T07:07:50;7.57;;;1.15;;
49123;SDS011;48506;48.202;16.274;2023-03-15T07:10:16;7.03;;;1.20;;
49123;SDS011;48506;48.202;16.274;2023-03-15T07:12:41;3.28;;;0.82;;
49123;SDS011;48506;48.202;16.274;2023-03-15T07:15:07;13.50;;;1.60;;
49123;SDS011;48506;48.202;16.274;2023-03-15T07:17:34;5.75;;;1.63;;
49123;SDS011;48506;48.202;16.274;2023-03-15T07:20:00;6.68;;;1.13;;
49123;SDS011;48506;48.202;16.274;2023-03-15T07:22:26;6.25;;;1.17;;
49123;SDS011;48506;48.202;16.274;2023-03-15T07:24:52;6.13;;;1.23;;
49123;SDS011;48506;48.202;16.274;2023-03-15T07:27:18;5.45;;;1.52;;
49123;SDS011;48506;48.202;16.274;2023-03-15T07:29:44;6.75;;;1.23;;
49123;SDS011;48506;48.202;16.274;2023-03-15T07:32:10;8.52;;;1.58;;
49123;SDS011;48506;48.202;16.274;2023-03-15T07:34:36;4.45;;;0.90;;
49123;SDS011;48506;48.202;16.274;2023-03-15T07:37:02;8.02;;;1.45;;
49123;SDS011;48506;48.202;16.274;2023-03-15T07:39:28;3.92;;;1.00;;
49123;SDS011;48506;48.202;16.274;2023-03-15T07:41:57;1.88;;;0.80;;
49123;SDS011;48506;48.202;16.274;2023-03-15T07:44:24;5.45;;;1.13;;
49123;SDS011;48506;48.202;16.274;2023-03-15T07:46:51;6.38;;;0.98;;
49123;SDS011;48506;48.202;16.274;2023-03-15T07:49:18;4.53;;;1.67;;
49123;SDS011;48506;48.202;16.274;2023-03-15T07:51:44;8.45;;;1.67;;
49123;SDS011;48506;48.202;16.274;2023-03-15T07:54:11;11.68;;;1.33;;
49123;SDS011;48506;48.202;16.274;2023-03-15T07:56:37;3.85;;;1.00;;
49123;SDS011;48506;48.202;16.274;2023-03-15T07:59:04;2.90;;;1.02;;
49123;SDS011;48506;48.202;16.274;2023-03-15T08:01:29;5.13;;;1.45;;
49123;SDS011;48506;48.202;16.274;2023-03-15T08:03:57;3.92;;;1.17;;
49123;SDS011;48506;48.202;16.274;2023-03-15T08:06:23;8.27;;;1.73;;
49123;SDS011;48506;48.202;16.274;2023-03-15T08:08:49;7.88;;;1.00;;
49123;SDS011;48506;48.202;16.274;2023-03-15T08:11:15;7.03;;;1.65;;
49123;SDS011;48506;48.202;16.274;2023-03-15T08:13:41;3.35;;;1.23;;
49123;SDS011;48506;48.202;16.274;2023-03-15T08:16:08;3.40;;;1.08;;
49123;SDS011;48506;48.202;16.274;2023-03-15T08:18:34;7.10;;;1.33;;
49123;SDS011;48506;48.202;16.274;2023-03-15T08:21:00;7.65;;;1.73;;
49123;SDS011;48506;48.202;16.274;2023-03-15T08:23:26;8.02;;;1.15;;
49123;SDS011;48506;48.202;16.274;2023-03-15T08:25:52;8.20;;;1.25;;
49123;SDS011;48506;48.202;16.274;2023-03-15T08:28:18;6.65;;;0.93;;
49123;SDS011;48506;48.202;16.274;2023-03-15T08:30:44;8.95;;;1.67;;
49123;SDS011;48506;48.202;16.274;2023-03-15T08:33:10;11.40;;;1.65;;
49123;SDS011;48506;48.202;16.274;2023-03-15T08:35:37;4.95;;;1.40;;
49123;SDS011;48506;48.202;16.274;2023-03-15T08:38:03;5.50;;;1.20;;
49123;SDS011;48506;48.202;16.274;2023-03-15T08:40:29;6.00;;;1.52;;
49123;SDS011;48506;48.202;16.274;2023-03-15T08:42:55;8.30;;;1.67;;
49123;SDS011;48506;48.202;16.274;2023-03-15T08:45:23;6.15;;;1.73;;
49123;SDS011;48506;48.202;16.274;2023-03-15T08:47:54;5.28;;;1.88;;
49123;SDS011;48506;48.202;16.274;2023-03-15T08:50:21;3.75;;;1.17;;
49123;SDS011;48506;48.202;16.274;2023-03-15T08:52:48;7.63;;;2.13;;
49123;SDS011;48506;48.202;16.274;2023-03-15T08:55:15;6.85;;;1.25;;
49123;SDS011;48506;48.202;16.274;2023-03-15T08:57:42;5.55;;;1.50;;
49123;SDS011;48506;48.202;16.274;2023-03-15T09:00:09;7.65;;;1.40;;
49123;SDS011;48506;48.202;16.274;2023-03-15T09:02:45;6.93;;;1.40;;
49123;SDS011;48506;48.202;16.274;2023-03-15T09:05:17;10.65;;;1.70;;
49123;SDS011;48506;48.202;16.274;2023-03-15T09:07:45;4.07;;;2.55;;
49123;SDS011;48506;48.202;16.274;2023-03-15T09:10:12;8.43;;;1.63;;
49123;SDS011;48506;48.202;16.274;2023-03-15T09:12:43;7.15;;;1.50;;
49123;SDS011;48506;48.202;16.274;2023-03-15T09:15:11;8.35;;;2.15;;
49123;SDS011;48506;48.202;16.274;2023-03-15T09:17:38;4.88;;;1.40;;
49123;SDS011;48506;48.202;16.274;2023-03-15T09:20:05;5.57;;;1.52;;
49123;SDS011;48506;48.202;16.274;2023-03-15T09:22:36;7.85;;;1.50;;
49123;SDS011;48506;48.202;16.274;2023-03-15T09:25:03;4.35;;;1.77;;
49123;SDS011;48506;48.202;16.274;2023-03-15T09:27:29;11.77;;;1.98;;
49123;SDS011;48506;48.202;16.274;2023-03-15T09:29:56;8.30;;;1.27;;
49123;SDS011;48506;48.202;16.274;2023-03-15T09:32:22;9.90;;;1.85;;
49123;SDS011;48506;48.202;16.274;2023-03-15T09:34:49;5.25;;;1.42;;
49123;SDS011;48506;48.202;16.274;2023-03-15T09:37:15;3.58;;;1.13;;
49123;SDS011;48506;48.202;16.274;2023-03-15T09:39:42;5.63;;;1.35;;
49123;SDS011;48506;48.202;16.274;2023-03-15T09:42:15;8.05;;;1.25;;
49123;SDS011;48506;48.202;16.274;2023-03-15T09:44:49;8.10;;;1.58;;
49123;SDS011;48506;48.202;16.274;2023-03-15T09:47:24;3.60;;;1.75;;
49123;SDS011;48506;48.202;16.274;2023-03-15T09:50:28;8.52;;;2.42;;
49123;SDS011;48506;48.202;16.274;2023-03-15T09:55:27;3.75;;;1.55;;
49123;SDS011;48506;48.202;16.274;2023-03-15T09:57:57;4.97;;;1.30;;
49123;SDS011;48506;48.202;16.274;2023-03-15T10:00:35;6.72;;;1.63;;
49123;SDS011;48506;48.202;16.274;2023-03-15T10:03:20;6.22;;;1.88;;
49123;SDS011;48506;48.202;16.274;2023-03-15T10:06:04;1.67;;;0.90;;
49123;SDS011;48506;48.202;16.274;2023-03-15T10:08:35;5.18;;;1.30;;
49123;SDS011;48506;48.202;16.274;2023-03-15T10:18:45;5.38;;;1.38;;
49123;SDS011;48506;48.202;16.274;2023-03-15T10:21:15;6.97;;;2.25;;
49123;SDS011;48506;48.202;16.274;2023-03-15T10:23:53;5.75;;;1.50;;
49123;SDS011;48506;48.202;16.274;2023-03-15T10:26:21;5.10;;;1.60;;
49123;SDS011;48506;48.202;16.274;2023-03-15T10:28:53;7.03;;;1.83;;
49123;SDS011;48506;48.202;16.274;2023-03-15T10:31:22;4.38;;;1.17;;
49123;SDS011;48506;48.202;16.274;2023-03-15T10:33:53;4.90;;;1.27;;
49123;SDS011;48506;48.202;16.274;2023-03-15T10:36:21;5.07;;;1.88;;
49123;SDS011;48506;48.202;16.274;2023-03-15T10:38:48;5.82;;;1.17;;
49123;SDS011;48506;48.202;16.274;2023-03-15T10:44:11;3.08;;;0.63;;
49123;SDS011;48506;48.202;16.274;2023-03-15T10:47:02;5.18;;;1.55;;
49123;SDS011;48506;48.202;16.274;2023-03-15T10:49:36;3.97;;;1.00;;
49123;SDS011;48506;48.202;16.274;2023-03-15T10:52:06;3.35;;;1.10;;
49123;SDS011;48506;48.202;16.274;2023-03-15T10:54:50;5.20;;;1.05;;
49123;SDS011;48506;48.202;16.274;2023-03-15T10:57:17;3.08;;;1.08;;
49123;SDS011;48506;48.202;16.274;2023-03-15T10:59:59;3.58;;;1.27;;
49123;SDS011;48506;48.202;16.274;2023-03-15T11:02:48;10.00;;;1.88;;
49123;SDS011;48506;48.202;16.274;2023-03-15T11:05:16;4.15;;;1.23;;
49123;SDS011;48506;48.202;16.274;2023-03-15T11:07:53;2.63;;;1.20;;
49123;SDS011;48506;48.202;16.274;2023-03-15T11:10:28;4.50;;;1.10;;
49123;SDS011;48506;48.202;16.274;2023-03-15T11:15:57;5.65;;;1.40;;
49123;SDS011;48506;48.202;16.274;2023-03-15T11:18:42;6.80;;;1.30;;
49123;SDS011;48506;48.202;16.274;2023-03-15T11:21:21;4.18;;;1.60;;
49123;SDS011;48506;48.202;16.274;2023-03-15T11:23:50;4.28;;;1.20;;
49123;SDS011;48506;48.202;16.274;2023-03-15T11:26:19;2.05;;;0.90;;
49123;SDS011;48506;48.202;16.274;2023-03-15T11:28:49;4.88;;;1.05;;
49123;SDS011;48506;48.202;16.274;2023-03-15T11:31:23;5.35;;;0.95;;
49123;SDS011;48506;48.202;16.274;2023-03-15T11:33:53;6.32;;;1.88;;
49123;SDS011;48506;48.202;16.274;2023-03-15T11:36:41;1.65;;;0.90;;
49123;SDS011;48506;48.202;16.274;2023-03-15T11:39:14;5.53;;;1.48;;
49123;SDS011;48506;48.202;16.274;2023-03-15T11:41:55;7.25;;;1.63;;
49123;SDS011;48506;48.202;16.274;2023-03-15T11:44:31;5.00;;;1.30;;
49123;SDS011;48506;48.202;16.274;2023-03-15T11:49:45;7.03;;;1.70;;
49123;SDS011;48506;48.202;16.274;2023-03-15T11:52:11;3.75;;;1.80;;
49123;SDS011;48506;48.202;16.274;2023-03-15T11:54:40;6.22;;;1.60;;
49123;SDS011;48506;48.202;16.274;2023-03-15T11:59:55;4.40;;;1.77;;
49123;SDS011;48506;48.202;16.274;2023-03-15T12:04:51;8.45;;;1.65;;
49123;SDS011;48506;48.202;16.274;2023-03-15T12:17:58;8.07;;;1.77;;
49123;SDS011;48506;48.202;16.274;2023-03-15T12:23:54;5.55;;;1.58;;
49123;SDS011;48506;48.202;16.274;2023-03-15T12:29:09;2.97;;;1.20;;
49123;SDS011;48506;48.202;16.274;2023-03-15T12:32:03;3.90;;;1.13;;
49123;SDS011;48506;48.202;16.274;2023-03-15T12:37:23;4.85;;;1.90;;
49123;SDS011;48506;48.202;16.274;2023-03-15T12:53:03;6.00;;;1.45;;
49123;SDS011;48506;48.202;16.274;2023-03-15T12:55:38;3.88;;;1.45;;
49123;SDS011;48506;48.202;16.274;2023-03-15T12:58:05;4.57;;;1.30;;
49123;SDS011;48506;48.202;16.274;2023-03-15T13:00:36;2.15;;;1.13;;
49123;SDS011;48506;48.202;16.274;2023-03-15T13:03:13;3.87;;;1.20;;
49123;SDS011;48506;48.202;16.274;2023-03-15T13:08:49;4.53;;;1.20;;
49123;SDS011;48506;48.202;16.274;2023-03-15T13:11:32;2.08;;;1.05;;
49123;SDS011;48506;48.202;16.274;2023-03-15T13:19:31;7.53;;;1.98;;
49123;SDS011;48506;48.202;16.274;2023-03-15T13:27:53;2.80;;;1.15;;
49123;SDS011;48506;48.202;16.274;2023-03-15T13:35:54;7.05;;;1.50;;
49123;SDS011;48506;48.202;16.274;2023-03-15T13:41:04;5.32;;;1.13;;
49123;SDS011;48506;48.202;16.274;2023-03-15T13:43:39;3.97;;;1.30;;
49123;SDS011;48506;48.202;16.274;2023-03-15T13:46:06;2.78;;;1.13;;
49123;SDS011;48506;48.202;16.274;2023-03-15T13:48:34;1.85;;;0.70;;
49123;SDS011;48506;48.202;16.274;2023-03-15T13:51:26;1.45;;;0.85;;
49123;SDS011;48506;48.202;16.274;2023-03-15T13:54:33;2.40;;;1.30;;
49123;SDS011;48506;48.202;16.274;2023-03-15T13:59:37;2.30;;;1.02;;
49123;SDS011;48506;48.202;16.274;2023-03-15T14:02:04;3.80;;;0.77;;
49123;SDS011;48506;48.202;16.274;2023-03-15T14:04:34;6.03;;;1.73;;
49123;SDS011;48506;48.202;16.274;2023-03-15T14:07:24;4.85;;;1.20;;
49123;SDS011;48506;48.202;16.274;2023-03-15T14:10:26;7.35;;;1.40;;
49123;SDS011;48506;48.202;16.274;2023-03-15T14:15:45;2.85;;;0.90;;
49123;SDS011;48506;48.202;16.274;2023-03-15T14:18:16;4.28;;;1.27;;
49123;SDS011;48506;48.202;16.274;2023-03-15T14:20:51;3.00;;;0.95;;
49123;SDS011;48506;48.202;16.274;2023-03-15T14:23:21;3.10;;;1.00;;
49123;SDS011;48506;48.202;16.274;2023-03-15T14:25:51;3.97;;;1.17;;
49123;SDS011;48506;48.202;16.274;2023-03-15T14:28:31;3.88;;;0.73;;
49123;SDS011;48506;48.202;16.274;2023-03-15T14:30:59;2.65;;;1.00;;
49123;SDS011;48506;48.202;16.274;2023-03-15T14:33:39;2.20;;;1.08;;
49123;SDS011;48506;48.202;16.274;2023-03-15T14:36:07;4.22;;;1.00;;
49123;SDS011;48506;48.202;16.274;2023-03-15T14:38:56;4.03;;;1.05;;
49123;SDS011;48506;48.202;16.274;2023-03-15T14:41:24;2.33;;;0.77;;
49123;SDS011;48506;48.202;16.274;2023-03-15T14:44:00;2.50;;;0.90;;
49123;SDS011;48506;48.202;16.274;2023-03-15T14:46:30;3.55;;;1.17;;
49123;SDS011;48506;48.202;16.274;2023-03-15T14:48:57;2.00;;;0.90;;
49123;SDS011;48506;48.202;16.274;2023-03-15T14:51:24;3.50;;;1.23;;
49123;SDS011;48506;48.202;16.274;2023-03-15T14:53:53;2.53;;;1.30;;
49123;SDS011;48506;48.202;16.274;2023-03-15T14:56:21;4.75;;;0.80;;
49123;SDS011;48506;48.202;16.274;2023-03-15T14:58:49;5.40;;;0.90;;
49123;SDS011;48506;48.202;16.274;2023-03-15T15:01:19;2.05;;;0.90;;
49123;SDS011;48506;48.202;16.274;2023-03-15T15:03:58;4.72;;;1.02;;
49123;SDS011;48506;48.202;16.274;2023-03-15T15:06:28;7.22;;;1.40;;
49123;SDS011;48506;48.202;16.274;2023-03-15T15:08:58;2.92;;;0.90;;
49123;SDS011;48506;48.202;16.274;2023-03-15T15:11:25;5.72;;;1.00;;
49123;SDS011;48506;48.202;16.274;2023-03-15T15:13:51;4.25;;;1.10;;
49123;SDS011;48506;48.202;16.274;2023-03-15T15:16:18;6.43;;;0.93;;
49123;SDS011;48506;48.202;16.274;2023-03-15T15:18:44;1.90;;;1.05;;
49123;SDS011;48506;48.202;16.274;2023-03-15T15:21:11;3.70;;;1.17;;
49123;SDS011;48506;48.202;16.274;2023-03-15T15:23:42;3.13;;;1.00;;
49123;SDS011;48506;48.202;16.274;2023-03-15T15:26:16;1.67;;;0.65;;
49123;SDS011;48506;48.202;16.274;2023-03-15T15:28:44;7.90;;;0.85;;
49123;SDS011;48506;48.202;16.274;2023-03-15T15:31:15;0.70;;;0.60;;
49123;SDS011;48506;48.202;16.274;2023-03-15T15:33:43;2.85;;;1.17;;
49123;SDS011;48506;48.202;16.274;2023-03-15T15:36:13;1.25;;;0.50;;
49123;SDS011;48506;48.202;16.274;2023-03-15T15:38:46;2.95;;;0.70;;
49123;SDS011;48506;48.202;16.274;2023-03-15T15:41:18;1.92;;;0.80;;
49123;SDS011;48506;48.202;16.274;2023-03-15T15:43:51;3.85;;;0.70;;
49123;SDS011;48506;48.202;16.274;2023-03-15T15:46:17;4.65;;;1.02;;
49123;SDS011;48506;48.202;16.274;2023-03-15T15:48:44;1.30;;;0.55;;
49123;SDS011;48506;48.202;16.274;2023-03-15T15:51:13;6.35;;;1.05;;
49123;SDS011;48506;48.202;16.274;2023-03-15T15:54:15;3.72;;;1.02;;
49123;SDS011;48506;48.202;16.274;2023-03-15T15:56:44;4.72;;;0.93;;
49123;SDS011;48506;48.202;16.274;2023-03-15T15:59:16;3.60;;;0.88;;
49123;SDS011;48506;48.202;16.274;2023-03-15T16:01:44;5.35;;;1.38;;
49123;SDS011;48506;48.202;16.274;2023-03-15T16:04:13;4.68;;;1.63;;
49123;SDS011;48506;48.202;16.274;2023-03-15T16:06:41;3.25;;;0.75;;
49123;SDS011;48506;48.202;16.274;2023-03-15T16:09:11;3.78;;;0.90;;
49123;SDS011;48506;48.202;16.274;2023-03-15T16:11:38;3.75;;;1.02;;
49123;SDS011;48506;48.202;16.274;2023-03-15T16:14:08;5.47;;;0.80;;
49123;SDS011;48506;48.202;16.274;2023-03-15T16:16:38;2.38;;;0.73;;